Humidity-temperature Sensor

Selected Measurement Type: Relative Humidity

 
Relative Humidity [%]     6 entries per hour
Showing data from 4/9/2015 (00:00:00 Z) to 4/6/2015 (00:01:00 Z)
Previous Next [ Day | 3-Days | 7-Days ]
First Last
Prev [ Day | 3-Days | 7-Days ] Next
First Last

Start Time:     :
End Time:     :     
Time (in GMT) :00 :50 :40 :30 :20 :10
Previous Next [ Day | 3-Days | 7-Days ]
First Last
Prev [ Day | 3-Days | 7-Days ] Next
First Last


123 => good data
MM => data is determined as missing
-- => data not received/configured
Back to Top Back to Top
4/9/2015 00:00 to 23:10 90.14 92.41 94.82 96.85 94.38 87.93
4/8/2015 23:00 to 22:10 85.42 84.86 86.46 86.92 86.76 87.22
4/8/2015 22:00 to 21:10 87.28 88.58 87.11 88.50 88.56 88.71
4/8/2015 21:00 to 20:10 88.84 89.95 89.97 89.36 90.25 90.42
4/8/2015 20:00 to 19:10 90.42 90.01 90.70 89.64 87.52 87.78
4/8/2015 19:00 to 18:10 86.35 90.21 89.47 89.25 88.86 88.86
4/8/2015 18:00 to 17:10 88.78 89.51 89.43 88.86 87.82 87.00
4/8/2015 17:00 to 16:10 87.63 87.28 84.95 84.64 89.75 90.66
4/8/2015 16:00 to 15:10 91.92 90.25 89.86 89.79 90.59 90.88
4/8/2015 15:00 to 14:10 91.29 91.48 91.44 91.22 90.66 90.57
4/8/2015 14:00 to 13:10 90.94 93.24 93.78 92.93 89.38 89.95
4/8/2015 13:00 to 12:10 89.17 88.75 88.63 89.40 89.21 89.27
4/8/2015 12:00 to 11:10 90.08 89.40 90.01 89.12 89.19 88.82
4/8/2015 11:00 to 10:10 90.18 89.64 89.69 89.47 90.03 93.32
4/8/2015 10:00 to 9:10 92.98 89.86 89.60 89.60 89.01 88.99
4/8/2015 09:00 to 8:10 90.03 92.09 92.37 92.87 94.30 94.71
4/8/2015 08:00 to 7:10 95.12 94.21 89.04 88.24 87.35 87.39
4/8/2015 07:00 to 6:10 89.82 94.51 96.70 95.57 92.91 89.95
4/8/2015 06:00 to 5:10 90.33 90.25 89.66 90.83 92.15 92.35
4/8/2015 05:00 to 4:10 92.50 92.37 92.61 93.37 93.78 93.06
4/8/2015 04:00 to 3:10 90.36 89.99 89.66 88.71 89.08 91.07
4/8/2015 03:00 to 2:10 90.88 90.75 91.18 91.72 91.89 91.81
4/8/2015 02:00 to 1:10 92.52 94.06 95.27 96.66 96.20 89.99
4/8/2015 01:00 to 0:10 83.73 82.69 83.32 82.85 82.85 81.83
4/8/2015 00:00 to 23:10 81.40 81.46 81.81 81.07 81.81 82.72
4/7/2015 23:00 to 22:10 -- -- -- -- -- --
4/7/2015 22:00 to 21:10 83.78 82.89 81.83 83.34 82.93 85.40
4/7/2015 21:00 to 20:10 85.40 85.62 85.16 84.97 84.66 84.19
4/7/2015 20:00 to 19:10 84.30 83.75 82.80 82.17 82.26 83.13
4/7/2015 19:00 to 18:10 83.00 84.60 84.47 85.01 83.91 83.86
4/7/2015 18:00 to 17:10 83.32 84.14 82.59 82.74 83.39 83.21
4/7/2015 17:00 to 16:10 83.19 85.62 81.48 82.52 82.37 83.86
4/7/2015 16:00 to 15:10 83.86 84.77 85.88 84.95 84.53 85.44
4/7/2015 15:00 to 14:10 86.48 86.70 85.83 87.02 84.79 85.31
4/7/2015 14:00 to 13:10 85.49 85.77 86.05 84.21 85.62 86.50
4/7/2015 13:00 to 12:10 85.92 87.35 87.30 86.50 86.81 87.04
4/7/2015 12:00 to 11:10 86.55 87.09 86.35 84.88 86.29 86.09
4/7/2015 11:00 to 10:10 85.72 85.12 85.05 85.36 86.07 85.94
4/7/2015 10:00 to 9:10 84.92 85.81 84.49 84.32 83.58 84.49
4/7/2015 09:00 to 8:10 83.95 83.21 84.10 83.32 83.71 85.16
4/7/2015 08:00 to 7:10 84.34 83.88 84.21 85.53 84.53 83.39
4/7/2015 07:00 to 6:10 84.62 85.10 84.23 87.00 87.41 87.63
4/7/2015 06:00 to 5:10 87.09 87.04 87.48 86.94 87.61 87.46
4/7/2015 05:00 to 4:10 87.09 86.53 85.85 86.94 85.44 86.18
4/7/2015 04:00 to 3:10 85.72 85.44 85.51 85.42 84.77 84.14
4/7/2015 03:00 to 2:10 83.84 82.35 82.52 83.21 81.70 82.78
4/7/2015 02:00 to 1:10 82.35 81.48 83.60 84.19 82.87 82.98
4/7/2015 01:00 to 0:10 83.60 84.77 83.39 82.24 83.21 84.62
4/7/2015 00:00 to 23:10 83.26 83.34 84.58 83.63 84.40 83.91
4/6/2015 23:00 to 22:10 84.53 84.84 85.31 85.23 86.07 86.16
4/6/2015 22:00 to 21:10 86.16 85.42 86.44 86.20 85.14 84.23
4/6/2015 21:00 to 20:10 85.38 84.45 85.70 84.56 84.79 84.75
4/6/2015 20:00 to 19:10 85.70 84.38 84.69 83.99 83.45 83.69
4/6/2015 19:00 to 18:10 83.69 84.64 84.69 83.13 82.91 83.02
4/6/2015 18:00 to 17:10 83.45 84.60 82.65 83.99 85.59 84.86
4/6/2015 17:00 to 16:10 84.79 85.01 83.91 85.03 83.78 85.21
4/6/2015 16:00 to 15:10 85.14 86.11 85.21 85.94 86.09 87.11
4/6/2015 15:00 to 14:10 86.42 86.44 88.67 87.13 86.55 85.18
4/6/2015 14:00 to 13:10 87.20 85.72 88.00 87.54 88.02 86.63
4/6/2015 13:00 to 12:10 87.26 86.16 84.97 86.63 85.96 86.59
4/6/2015 12:00 to 11:10 85.85 86.33 85.77 85.59 85.44 85.08
4/6/2015 11:00 to 10:10 83.24 82.91 84.77 83.19 83.37 83.99
4/6/2015 10:00 to 9:10 86.48 86.11 85.08 84.92 86.44 84.17
4/6/2015 09:00 to 8:10 84.25 83.97 89.47 87.28 87.74 87.82
4/6/2015 08:00 to 7:10 87.95 87.07 85.53 84.95 83.86 82.30
4/6/2015 07:00 to 6:10 89.62 89.32 88.32 89.99 93.54 92.43
4/6/2015 06:00 to 5:10 87.13 85.81 86.03 84.84 82.76 82.30
4/6/2015 05:00 to 4:10 90.77 90.25 93.84 93.86 85.64 85.23
4/6/2015 04:00 to 3:10 85.85 86.33 87.41 87.65 87.54 87.07
4/6/2015 03:00 to 2:10 86.03 87.37 87.00 87.98 86.92 87.13
4/6/2015 02:00 to 1:10 88.45 89.90 93.02 93.99 87.04 84.36
4/6/2015 01:00 to 0:10 83.54 84.49 85.16 85.21 84.73 84.21